Airfield :
LOGIN :

Register | Disclaimer

   EN    FR    IT 

 










Legend :    VFR   Marginal VFR   IFR   Intensive IFR   Very Intensive IFR
Visi :
Ceiling :
>= 8 km
>= 3000ft
5 to 8 km
1000 to 3000 ft
1500m to 5 km
500 to 1000 ft
800 to 1500m
200 to 500 ft
< 800m
< 200 ft
Symbols :   Thunderstorms  Fog  Heavy snow  Heavy precipitations  Wind > 20 kt
SIGMETs :     Misc.  Thunderstorms  Icing  Turbulence  Mountain Waves  Volcanic Ashes






- Airport Elevation : 290 ft
- IATA code : OSI


LDOS - Osijek

CURRENT METAR :
  • 032030Z 33004KT CAVOK 06/M02 Q1016

EXPIRED METARs :
  • 032000Z 06001KT CAVOK 07/M01 Q1015
  • 031930Z 07002KT CAVOK 08/M02 Q1015
  • 031900Z 08004KT CAVOK 08/M01 Q1015
  • 031830Z 09004KT CAVOK 09/M02 Q1014
  • 031800Z 08005KT CAVOK 11/M02 Q1014

TAF TAF LDOS
Valid from the 03 at 18:00 until the 04 at 18:00 UTC


031725Z 0318/0418 03008KT CAVOK TX17/0413Z TN01/0404Z
BECMG 0416/0418 05010G25KT



MET'MAP, your aeronautical weather chart ! - Copyright ORBIFLY December 2007 - Disclaimer

ORBIFLY MET'MAP TEAM :

Programming & Development : Alexandra Zaïnal
Concept & original design : Baudouin d'Aumeries
Assistance for programming : Marc-Olivier Méhu
Technical & hardware support : Manuel Goepfert

Contact : metmap@orbifly.com




SOURCES & CREDITS :

   NOAA